Time;durP1;ratioP1;P1;durP2;ratioP2;P2;SDS_P1;SDS_P2;PMS_P1;PMS_P2;Temp;Humidity;BMP_temperature;BMP_pressure;BME280_temperature;BME280_humidity;BME280_pressure;Samples;Min_cycle;Max_cycle;Signal;HPM_P1;HPM_P2
2021/07/12 00:00:00;;;;;;;7.87;7.20;;;20.80;99.90;;;;;;5078151;28;20472;-78
2021/07/12 00:02:26;;;;;;;9.17;6.63;;;20.80;99.90;;;;;;5078185;28;20469;-78
2021/07/12 00:04:53;;;;;;;7.23;6.73;;;20.70;99.90;;;;;;5078001;28;20444;-78
2021/07/12 00:07:19;;;;;;;7.73;7.00;;;20.60;99.90;;;;;;5077604;28;20857;-78
2021/07/12 00:09:46;;;;;;;7.13;6.10;;;20.40;99.90;;;;;;5076453;28;20453;-79
2021/07/12 00:12:13;;;;;;;8.40;7.70;;;20.60;99.90;;;;;;5076822;28;20458;-78
2021/07/12 00:14:41;;;;;;;7.23;6.73;;;20.60;99.90;;;;;;5076333;28;20445;-79
2021/07/12 00:17:07;;;;;;;8.00;7.30;;;20.70;99.90;;;;;;5076309;28;20549;-79
2021/07/12 00:19:34;;;;;;;7.50;6.90;;;20.60;99.90;;;;;;5077899;28;20452;-79
2021/07/12 00:22:01;;;;;;;8.73;7.97;;;20.60;99.90;;;;;;5078027;28;20867;-78
2021/07/12 00:24:27;;;;;;;6.70;6.20;;;20.50;99.90;;;;;;5077927;28;20938;-77
2021/07/12 00:26:54;;;;;;;7.90;7.17;;;20.70;99.90;;;;;;5076687;28;20950;-78
2021/07/12 00:29:20;;;;;;;7.47;6.70;;;20.50;99.90;;;;;;5076477;28;20908;-78
2021/07/12 00:31:48;;;;;;;7.40;6.70;;;20.40;99.90;;;;;;5075779;28;20476;-78
2021/07/12 00:34:15;;;;;;;8.03;7.40;;;20.40;99.90;;;;;;5075844;28;20449;-78
2021/07/12 00:36:41;;;;;;;7.63;7.07;;;20.30;99.90;;;;;;5075375;28;20482;-78
2021/07/12 00:39:08;;;;;;;7.13;6.53;;;20.40;99.90;;;;;;5075634;28;20542;-78
2021/07/12 00:41:35;;;;;;;7.53;6.80;;;20.20;99.90;;;;;;5076415;28;20884;-78
2021/07/12 00:44:03;;;;;;;7.10;6.57;;;20.40;99.90;;;;;;5078324;28;20483;-78
2021/07/12 00:46:29;;;;;;;7.80;7.20;;;20.40;99.90;;;;;;5076124;28;20473;-78
2021/07/12 00:48:57;;;;;;;7.20;6.70;;;20.40;99.90;;;;;;5075383;28;20500;-78
2021/07/12 00:51:25;;;;;;;7.70;7.10;;;20.40;99.90;;;;;;5076543;28;20448;-78
2021/07/12 00:53:52;;;;;;;8.23;7.63;;;20.30;99.90;;;;;;5076891;28;20487;-78
2021/07/12 00:56:20;;;;;;;7.93;7.33;;;20.30;99.90;;;;;;5075138;28;20444;-78
2021/07/12 00:58:47;;;;;;;8.40;7.60;;;20.20;99.90;;;;;;5075306;28;20543;-79
2021/07/12 01:01:14;;;;;;;8.00;7.20;;;20.40;99.90;;;;;;5074872;28;20506;-79
2021/07/12 01:03:40;;;;;;;8.10;7.50;;;20.30;99.90;;;;;;5075249;28;20857;-78
2021/07/12 01:06:09;;;;;;;8.40;7.80;;;20.30;99.90;;;;;;5075756;28;20445;-78
2021/07/12 01:08:36;;;;;;;8.27;7.57;;;20.40;99.90;;;;;;5074418;28;20511;-77
2021/07/12 01:11:10;;;;;;;9.93;7.60;;;19.90;99.90;;;;;;5075638;28;20560;-79
2021/07/12 01:13:45;;;;;;;8.27;7.57;;;20.20;99.90;;;;;;5075587;28;20429;-77
2021/07/12 01:16:22;;;;;;;11.17;8.20;;;20.20;99.90;;;;;;5075306;28;20460;-79
2021/07/12 01:18:53;;;;;;;8.10;7.50;;;20.30;99.90;;;;;;5077625;28;20516;-79
2021/07/12 01:22:09;;;;;;;8.50;7.80;;;20.30;99.90;;;;;;5077278;28;20429;-78
2021/07/12 01:25:13;;;;;;;8.53;7.83;;;20.30;99.90;;;;;;5075230;28;20452;-78
2021/07/12 01:28:14;;;;;;;8.47;7.77;;;20.30;99.90;;;;;;5074497;28;20468;-78
2021/07/12 01:31:11;;;;;;;8.60;8.00;;;20.20;99.90;;;;;;5041053;28;20441;-78
2021/07/12 01:33:42;;;;;;;9.17;8.37;;;20.30;99.90;;;;;;5074687;28;20460;-78
2021/07/12 01:36:18;;;;;;;8.57;7.87;;;20.30;99.90;;;;;;5074336;28;20460;-78
2021/07/12 01:38:51;;;;;;;8.70;8.00;;;20.20;99.90;;;;;;5074015;28;20591;-78
2021/07/12 01:41:27;;;;;;;8.80;8.20;;;19.80;99.90;;;;;;5074287;28;20498;-78
2021/07/12 01:44:01;;;;;;;7.80;7.20;;;20.20;99.90;;;;;;5074201;28;20440;-78
2021/07/12 01:46:32;;;;;;;8.17;7.57;;;20.20;99.90;;;;;;5074355;28;20425;-79
2021/07/12 01:49:05;;;;;;;8.00;7.50;;;20.20;99.90;;;;;;5074773;28;20530;-79
2021/07/12 01:51:36;;;;;;;9.13;8.10;;;20.20;99.90;;;;;;5074361;28;20486;-78
2021/07/12 01:54:10;;;;;;;9.27;8.47;;;20.30;99.90;;;;;;5074928;28;20483;-79
2021/07/12 01:56:44;;;;;;;8.77;8.07;;;20.20;99.90;;;;;;5074839;28;20441;-79
2021/07/12 01:59:17;;;;;;;8.90;8.30;;;20.30;99.90;;;;;;5074420;28;20520;-77
2021/07/12 02:01:44;;;;;;;9.27;7.80;;;20.30;99.90;;;;;;5074046;28;20425;-78
2021/07/12 02:04:15;;;;;;;9.70;9.00;;;20.20;99.90;;;;;;5073776;28;21018;-78
2021/07/12 02:06:42;;;;;;;8.30;7.70;;;20.20;99.90;;;;;;5074411;28;20474;-78
2021/07/12 02:09:10;;;;;;;9.23;8.63;;;20.30;99.90;;;;;;5073823;28;20499;-78
2021/07/12 02:11:41;;;;;;;8.63;8.03;;;20.20;99.90;;;;;;5074303;28;20449;-78
2021/07/12 02:14:08;;;;;;;9.03;8.23;;;20.20;99.90;;;;;;5075342;28;20460;-78
2021/07/12 02:16:37;;;;;;;9.23;8.30;;;20.20;99.90;;;;;;5073868;28;20444;-77
2021/07/12 02:19:06;;;;;;;7.97;7.47;;;20.20;99.90;;;;;;5073076;28;21010;-78
2021/07/12 02:21:35;;;;;;;9.67;8.97;;;20.20;99.90;;;;;;5073181;28;20487;-79
2021/07/12 02:24:04;;;;;;;9.60;8.90;;;20.20;99.90;;;;;;5074015;28;20480;-78
2021/07/12 02:26:32;;;;;;;8.60;8.00;;;20.20;99.90;;;;;;5074496;28;20486;-78
2021/07/12 02:29:01;;;;;;;9.30;8.57;;;20.20;99.90;;;;;;5074425;28;20522;-77
2021/07/12 02:31:30;;;;;;;9.87;9.07;;;20.20;99.90;;;;;;5073847;28;20456;-78
2021/07/12 02:33:58;;;;;;;8.63;7.73;;;20.10;99.90;;;;;;5073478;28;20456;-78
2021/07/12 02:36:25;;;;;;;9.00;8.30;;;20.10;99.90;;;;;;5073554;28;20903;-78
2021/07/12 02:38:55;;;;;;;9.43;8.73;;;20.10;99.90;;;;;;5073228;28;20512;-78
2021/07/12 02:41:23;;;;;;;9.30;8.60;;;20.00;99.90;;;;;;5073470;28;20439;-77
2021/07/12 02:43:50;;;;;;;8.97;8.37;;;20.10;99.90;;;;;;5073498;28;20471;-78
2021/07/12 02:46:17;;;;;;;9.30;8.27;;;20.10;99.90;;;;;;5073170;28;20975;-77
2021/07/12 02:48:43;;;;;;;9.13;8.53;;;20.00;99.90;;;;;;5073849;28;20511;-77
2021/07/12 02:51:14;;;;;;;9.60;8.67;;;20.00;99.90;;;;;;5073459;28;20473;-77
2021/07/12 02:53:47;;;;;;;10.20;9.40;;;20.10;99.90;;;;;;5073185;28;20476;-77
2021/07/12 02:56:15;;;;;;;8.87;8.07;;;20.10;99.90;;;;;;5073431;28;20798;-77
2021/07/12 02:58:41;;;;;;;9.50;8.80;;;20.10;99.90;;;;;;5073544;28;20520;-77
2021/07/12 03:01:08;;;;;;;9.67;8.90;;;20.00;99.90;;;;;;5073629;28;20477;-77
2021/07/12 03:03:35;;;;;;;9.53;8.60;;;20.20;99.90;;;;;;5073404;28;20495;-77
2021/07/12 03:06:09;;;;;;;10.17;9.23;;;20.10;99.90;;;;;;5073772;28;20476;-77
2021/07/12 03:08:42;;;;;;;9.33;8.63;;;20.10;99.90;;;;;;5073602;28;20531;-78
2021/07/12 03:11:16;;;;;;;8.80;8.20;;;19.90;99.90;;;;;;5073912;28;20907;-77
2021/07/12 03:13:50;;;;;;;10.20;9.40;;;20.10;99.90;;;;;;5073123;28;20764;-77
2021/07/12 03:16:18;;;;;;;10.10;9.30;;;20.10;99.90;;;;;;5073179;28;20433;-77
2021/07/12 03:18:48;;;;;;;10.87;9.90;;;20.10;99.90;;;;;;5073136;28;20488;-77
2021/07/12 03:21:18;;;;;;;9.97;9.17;;;20.10;99.90;;;;;;5073230;28;20455;-78
2021/07/12 03:23:48;;;;;;;8.90;8.30;;;20.10;99.90;;;;;;5073091;28;20493;-76
2021/07/12 03:26:19;;;;;;;10.03;9.23;;;20.10;99.90;;;;;;5073101;28;20967;-77
2021/07/12 03:28:47;;;;;;;11.63;9.23;;;20.20;99.90;;;;;;5073103;28;20459;-77
2021/07/12 03:31:14;;;;;;;9.87;9.13;;;20.10;99.90;;;;;;5072786;28;20480;-79
2021/07/12 03:33:41;;;;;;;11.03;10.13;;;20.00;99.90;;;;;;5075263;28;20448;-79
2021/07/12 03:36:09;;;;;;;12.20;11.20;;;19.90;99.90;;;;;;5076599;28;20463;-77
2021/07/12 03:38:37;;;;;;;10.70;9.80;;;19.90;99.90;;;;;;5077053;28;20533;-77
2021/07/12 03:41:06;;;;;;;10.73;9.83;;;19.90;99.90;;;;;;5076464;28;20479;-78
2021/07/12 03:43:34;;;;;;;10.80;9.77;;;20.00;99.90;;;;;;5076415;28;21026;-78
2021/07/12 03:46:02;;;;;;;10.63;9.90;;;20.00;99.90;;;;;;5076412;28;20955;-78
2021/07/12 03:48:36;;;;;;;11.77;10.80;;;20.00;99.90;;;;;;5076023;28;20480;-77
2021/07/12 03:51:04;;;;;;;11.70;10.80;;;19.90;99.90;;;;;;5076422;28;20449;-77
2021/07/12 03:53:31;;;;;;;11.10;10.10;;;19.90;99.90;;;;;;5076280;28;20886;-77
2021/07/12 03:55:58;;;;;;;11.10;10.20;;;19.80;99.90;;;;;;5076625;28;20448;-77
2021/07/12 03:58:25;;;;;;;11.63;10.53;;;19.80;99.90;;;;;;5076863;28;20527;-77
2021/07/12 04:00:53;;;;;;;10.80;10.00;;;19.90;99.90;;;;;;5076434;28;20449;-77
2021/07/12 04:03:19;;;;;;;11.00;10.20;;;19.90;99.90;;;;;;5076216;28;20487;-76
2021/07/12 04:05:46;;;;;;;11.40;10.50;;;19.90;99.90;;;;;;5075908;28;20448;-76
2021/07/12 04:08:13;;;;;;;10.57;9.87;;;19.90;99.90;;;;;;5075694;28;20475;-76
2021/07/12 04:10:40;;;;;;;12.00;11.10;;;19.90;99.90;;;;;;5075808;28;20824;-78
2021/07/12 04:13:08;;;;;;;11.97;11.00;;;19.90;99.90;;;;;;5075965;28;20444;-76
2021/07/12 04:15:35;;;;;;;11.73;10.63;;;19.80;99.90;;;;;;5075793;28;20480;-77
2021/07/12 04:18:05;;;;;;;11.20;10.13;;;19.80;99.90;;;;;;5075808;28;20537;-77
2021/07/12 04:20:31;;;;;;;11.90;11.00;;;19.90;99.90;;;;;;5076343;28;20449;-77
2021/07/12 04:22:59;;;;;;;11.60;10.70;;;19.80;99.90;;;;;;5075637;28;20966;-77
2021/07/12 04:25:26;;;;;;;11.10;10.10;;;19.90;99.90;;;;;;5075826;28;20480;-77
2021/07/12 04:27:53;;;;;;;12.60;11.60;;;20.00;99.90;;;;;;5075671;28;20522;-77
2021/07/12 04:30:20;;;;;;;13.50;12.33;;;20.00;99.90;;;;;;5075618;28;20437;-77
2021/07/12 04:32:47;;;;;;;12.07;11.03;;;20.10;99.90;;;;;;5075350;28;20483;-79
2021/07/12 04:35:15;;;;;;;12.10;11.20;;;20.00;99.90;;;;;;5075372;28;20444;-78
2021/07/12 04:37:41;;;;;;;13.23;12.03;;;20.20;99.90;;;;;;5075264;28;20872;-78
2021/07/12 04:40:09;;;;;;;12.97;11.87;;;20.00;99.90;;;;;;5075473;28;20512;-78
2021/07/12 04:42:36;;;;;;;12.43;11.50;;;20.00;99.90;;;;;;5075285;28;20441;-78
2021/07/12 04:45:03;;;;;;;11.90;10.90;;;20.00;99.90;;;;;;5075055;28;20506;-77
2021/07/12 04:47:31;;;;;;;11.80;10.90;;;20.10;99.90;;;;;;5075081;28;20469;-77
2021/07/12 04:49:58;;;;;;;12.23;11.13;;;20.10;99.90;;;;;;5074717;28;20535;-78
2021/07/12 04:52:26;;;;;;;12.10;11.20;;;20.10;99.90;;;;;;5075159;28;20476;-77
2021/07/12 04:54:52;;;;;;;12.10;11.20;;;20.10;99.90;;;;;;5075029;28;20483;-78
2021/07/12 04:57:19;;;;;;;11.83;11.03;;;20.20;99.90;;;;;;5074887;28;20464;-78
2021/07/12 04:59:45;;;;;;;12.63;11.70;;;20.10;99.90;;;;;;5074703;28;20476;-77
2021/07/12 05:02:13;;;;;;;14.10;12.83;;;20.10;99.90;;;;;;5074886;28;20445;-77
2021/07/12 05:04:41;;;;;;;15.00;12.30;;;20.10;99.90;;;;;;5074885;28;20456;-77
2021/07/12 05:07:10;;;;;;;12.63;11.53;;;20.10;99.90;;;;;;5074910;28;20862;-77
2021/07/12 05:09:38;;;;;;;12.53;11.53;;;20.10;99.90;;;;;;5074729;28;20480;-77
2021/07/12 05:12:08;;;;;;;13.40;12.27;;;20.00;99.90;;;;;;5075123;28;20473;-77
2021/07/12 05:14:36;;;;;;;12.40;11.40;;;20.00;99.90;;;;;;5075505;28;20527;-77
2021/07/12 05:17:04;;;;;;;15.00;13.80;;;20.10;99.90;;;;;;5074287;28;20484;-77
2021/07/12 05:19:30;;;;;;;14.83;13.73;;;19.90;99.90;;;;;;5074596;28;20489;-77
2021/07/12 05:21:57;;;;;;;14.50;13.30;;;19.80;99.90;;;;;;5074433;28;20864;-77
2021/07/12 05:24:24;;;;;;;14.10;12.90;;;19.80;99.90;;;;;;5074487;28;20445;-78
2021/07/12 05:26:52;;;;;;;14.07;12.97;;;19.60;99.90;;;;;;5074457;28;20505;-77
2021/07/12 05:29:18;;;;;;;14.40;13.10;;;19.60;99.90;;;;;;5074245;28;20618;-77
2021/07/12 05:31:45;;;;;;;15.27;13.97;;;19.60;99.90;;;;;;5074756;28;20456;-78
2021/07/12 05:34:11;;;;;;;14.10;13.00;;;19.70;99.90;;;;;;5074667;28;20472;-79
2021/07/12 05:36:38;;;;;;;13.97;12.87;;;19.70;99.90;;;;;;5074940;28;20532;-78
2021/07/12 05:39:05;;;;;;;14.67;13.57;;;19.50;99.90;;;;;;5073936;28;20533;-77
2021/07/12 05:41:32;;;;;;;14.43;13.33;;;19.50;99.90;;;;;;5074018;28;20452;-77
2021/07/12 05:44:00;;;;;;;14.50;13.50;;;19.60;99.90;;;;;;5073964;28;20506;-77
2021/07/12 05:46:26;;;;;;;14.47;13.20;;;19.50;99.90;;;;;;5073753;28;20483;-77
2021/07/12 05:48:53;;;;;;;15.10;13.20;;;19.50;99.90;;;;;;5073359;28;20532;-77
2021/07/12 05:51:20;;;;;;;15.10;13.70;;;19.60;99.90;;;;;;5073692;28;20483;-78
2021/07/12 05:53:46;;;;;;;16.90;14.50;;;19.60;99.90;;;;;;5073796;28;20479;-79
2021/07/12 05:56:16;;;;;;;17.27;15.77;;;19.50;99.90;;;;;;5073251;28;20505;-78
2021/07/12 05:58:43;;;;;;;16.43;15.03;;;19.40;99.90;;;;;;5074205;28;20467;-78
2021/07/12 06:01:11;;;;;;;16.73;14.93;;;19.60;99.90;;;;;;5076182;28;20451;-78
2021/07/12 06:03:38;;;;;;;16.23;14.80;;;19.50;99.90;;;;;;5074973;28;20509;-77
2021/07/12 06:06:04;;;;;;;15.97;14.57;;;19.60;99.90;;;;;;5073475;28;20450;-77
2021/07/12 06:08:31;;;;;;;15.17;13.77;;;19.40;99.90;;;;;;5073378;28;20498;-77
2021/07/12 06:10:58;;;;;;;15.57;14.37;;;19.60;99.90;;;;;;5073896;28;20452;-78
2021/07/12 06:13:24;;;;;;;13.30;12.10;;;19.80;99.90;;;;;;5073440;28;20450;-77
2021/07/12 06:15:51;;;;;;;14.10;12.70;;;19.60;99.90;;;;;;5073476;28;20497;-77
2021/07/12 06:18:19;;;;;;;13.03;11.93;;;19.80;99.90;;;;;;5073377;28;20499;-77
2021/07/12 06:20:45;;;;;;;15.43;14.10;;;19.70;99.90;;;;;;5072995;28;21066;-77
2021/07/12 06:23:12;;;;;;;13.90;12.80;;;19.60;99.90;;;;;;5073273;28;20477;-77
2021/07/12 06:25:39;;;;;;;14.00;12.70;;;19.80;99.90;;;;;;5073320;28;20883;-77
2021/07/12 06:28:06;;;;;;;14.00;12.90;;;20.10;99.90;;;;;;5073619;28;20503;-77
2021/07/12 06:30:33;;;;;;;14.03;12.93;;;19.90;99.90;;;;;;5074335;28;20501;-77
2021/07/12 06:32:59;;;;;;;19.83;18.03;;;19.90;99.90;;;;;;5073130;28;20452;-77
2021/07/12 06:35:27;;;;;;;15.83;14.37;;;19.90;99.90;;;;;;5072908;28;20446;-78
2021/07/12 06:37:54;;;;;;;17.60;15.93;;;19.90;99.90;;;;;;5073712;28;20499;-79
2021/07/12 06:40:22;;;;;;;16.07;14.67;;;19.90;99.90;;;;;;5073248;28;20563;-77
2021/07/12 06:42:49;;;;;;;14.47;13.37;;;19.90;99.90;;;;;;5073041;28;20512;-78
2021/07/12 06:45:16;;;;;;;16.13;14.83;;;20.00;99.90;;;;;;5073008;28;20445;-76
2021/07/12 06:47:42;;;;;;;14.33;13.23;;;20.00;99.90;;;;;;5072745;28;20553;-77
2021/07/12 06:50:09;;;;;;;14.20;13.10;;;20.20;99.90;;;;;;5073297;28;20457;-78
2021/07/12 06:52:37;;;;;;;12.67;11.77;;;20.40;99.90;;;;;;5073404;28;20445;-77
2021/07/12 06:55:04;;;;;;;14.00;12.70;;;20.40;99.90;;;;;;5073577;28;20871;-78
2021/07/12 06:57:31;;;;;;;14.63;13.37;;;20.40;99.90;;;;;;5073685;28;20497;-78
2021/07/12 07:00:00;;;;;;;12.17;11.27;;;20.40;99.90;;;;;;5076000;28;20476;-77
2021/07/12 07:02:27;;;;;;;14.37;13.17;;;20.60;99.90;;;;;;5074683;28;20475;-77
2021/07/12 07:04:53;;;;;;;15.93;14.50;;;20.50;99.90;;;;;;5074684;28;20451;-77
2021/07/12 07:07:20;;;;;;;14.33;13.20;;;20.70;99.90;;;;;;5074668;28;20452;-77
2021/07/12 07:09:48;;;;;;;13.70;12.70;;;20.70;99.90;;;;;;5078915;28;20473;-77
2021/07/12 07:12:15;;;;;;;15.03;13.83;;;20.70;99.90;;;;;;5079538;28;20517;-77
2021/07/12 07:14:41;;;;;;;14.47;13.33;;;20.60;99.90;;;;;;5085076;28;20546;-78
2021/07/12 07:17:08;;;;;;;13.33;12.23;;;20.70;99.90;;;;;;5079498;28;20487;-78
2021/07/12 07:19:34;;;;;;;14.20;13.10;;;20.70;99.90;;;;;;5077961;28;20516;-78
2021/07/12 07:22:01;;;;;;;14.30;13.10;;;20.90;99.90;;;;;;5077372;28;20486;-77
2021/07/12 07:24:28;;;;;;;13.80;12.57;;;20.80;99.90;;;;;;5076871;28;20487;-77
2021/07/12 07:26:56;;;;;;;12.57;11.63;;;21.10;99.90;;;;;;5076752;28;20445;-77
2021/07/12 07:29:22;;;;;;;13.00;11.73;;;21.20;99.90;;;;;;5076771;28;20472;-77
2021/07/12 07:31:50;;;;;;;12.73;11.73;;;21.40;99.90;;;;;;5077385;28;20448;-76
2021/07/12 07:34:17;;;;;;;14.37;12.87;;;21.40;99.90;;;;;;5076775;28;20942;-77
2021/07/12 07:36:43;;;;;;;13.47;12.10;;;21.40;99.90;;;;;;5087025;28;20449;-77
2021/07/12 07:39:11;;;;;;;13.30;12.13;;;21.60;99.90;;;;;;5081939;28;20491;-77
2021/07/12 07:41:39;;;;;;;11.23;10.43;;;21.50;99.90;;;;;;5076854;28;20448;-77
2021/07/12 07:44:07;;;;;;;11.17;10.13;;;21.70;99.90;;;;;;5080224;28;20455;-77
2021/07/12 07:46:35;;;;;;;13.00;11.90;;;22.00;99.90;;;;;;5077982;28;20481;-79
2021/07/12 07:49:02;;;;;;;11.53;10.70;;;22.10;99.90;;;;;;5079755;28;20515;-78
2021/07/12 07:51:29;;;;;;;11.83;10.77;;;22.10;99.90;;;;;;5088380;28;20440;-77
2021/07/12 07:53:56;;;;;;;10.40;9.70;;;22.20;99.90;;;;;;5083064;28;20498;-77
2021/07/12 07:56:22;;;;;;;10.40;9.60;;;22.40;99.90;;;;;;5077971;28;20445;-78
2021/07/12 07:58:49;;;;;;;10.73;9.90;;;22.60;99.90;;;;;;5077847;28;20488;-77
2021/07/12 08:01:17;;;;;;;10.97;10.03;;;22.80;99.90;;;;;;5076992;28;21038;-76
2021/07/12 08:03:43;;;;;;;10.20;9.23;;;22.90;99.90;;;;;;5076593;28;20589;-77
2021/07/12 08:06:10;;;;;;;10.07;9.33;;;22.90;99.90;;;;;;5076387;28;20477;-77
2021/07/12 08:08:38;;;;;;;11.60;10.70;;;22.80;99.90;;;;;;5076208;28;20843;-78
2021/07/12 08:11:05;;;;;;;10.37;9.67;;;22.70;99.90;;;;;;5076102;28;20922;-77
2021/07/12 08:13:31;;;;;;;12.20;11.30;;;22.70;99.90;;;;;;5075915;28;20484;-77
2021/07/12 08:15:58;;;;;;;12.20;11.00;;;22.90;99.90;;;;;;5076051;28;20825;-77
2021/07/12 08:18:26;;;;;;;11.17;10.37;;;22.80;99.90;;;;;;5075567;28;20470;-77
2021/07/12 08:20:53;;;;;;;11.47;10.57;;;22.90;99.90;;;;;;5075838;28;20480;-76
2021/07/12 08:23:19;;;;;;;12.60;11.60;;;22.80;99.90;;;;;;5075743;28;20437;-77
2021/07/12 08:25:47;;;;;;;11.90;10.90;;;22.80;99.90;;;;;;5075655;28;20445;-77
2021/07/12 08:28:13;;;;;;;12.73;11.53;;;22.70;99.90;;;;;;5076204;28;20492;-78
2021/07/12 08:30:40;;;;;;;12.60;11.60;;;22.90;99.90;;;;;;5075722;28;20475;-78
2021/07/12 08:33:06;;;;;;;12.90;11.03;;;23.00;99.90;;;;;;5075626;28;20887;-78
2021/07/12 08:35:35;;;;;;;12.27;11.30;;;22.90;99.90;;;;;;5075775;28;20480;-78
2021/07/12 08:38:01;;;;;;;13.43;12.40;;;22.90;99.90;;;;;;5075484;28;20854;-77
2021/07/12 08:40:29;;;;;;;10.80;10.00;;;22.90;99.90;;;;;;5075756;28;20512;-78
2021/07/12 08:42:58;;;;;;;12.13;11.20;;;23.00;99.90;;;;;;5075576;28;20451;-77
2021/07/12 08:45:25;;;;;;;11.57;10.57;;;23.10;99.90;;;;;;5075542;28;20480;-77
2021/07/12 08:47:53;;;;;;;11.40;10.60;;;;;;;;;;5075553;28;20461;-78
2021/07/12 08:50:20;;;;;;;11.33;10.33;;;23.20;99.90;;;;;;5076409;28;20480;-77
2021/07/12 08:52:50;;;;;;;12.07;11.07;;;23.30;99.90;;;;;;5075497;28;20425;-76
2021/07/12 08:55:18;;;;;;;13.33;11.93;;;23.40;99.90;;;;;;5075288;28;20469;-77
2021/07/12 08:57:56;;;;;;;12.70;11.70;;;23.20;99.90;;;;;;5074888;28;20501;-76
2021/07/12 09:00:45;;;;;;;14.50;13.10;;;23.50;99.90;;;;;;5075219;28;20471;-77
2021/07/12 09:03:20;;;;;;;13.13;12.03;;;23.60;99.90;;;;;;5074987;28;20535;-77
2021/07/12 09:05:59;;;;;;;11.47;10.57;;;23.50;99.90;;;;;;5074844;28;20456;-78
2021/07/12 09:08:42;;;;;;;17.40;16.00;;;23.60;99.90;;;;;;5074896;28;20466;-77
2021/07/12 09:11:12;;;;;;;14.00;12.80;;;23.70;99.90;;;;;;5075590;28;20466;-77
2021/07/12 09:13:43;;;;;;;13.37;12.33;;;23.80;99.90;;;;;;5074674;28;20442;-78
2021/07/12 09:16:39;;;;;;;14.47;13.17;;;23.90;99.90;;;;;;5074473;28;20545;-77
2021/07/12 09:19:12;;;;;;;14.10;12.83;;;24.00;99.90;;;;;;5074025;28;21046;-78
2021/07/12 09:21:41;;;;;;;14.33;13.23;;;24.00;99.90;;;;;;5074347;28;20822;-77
2021/07/12 09:24:18;;;;;;;13.30;12.30;;;24.00;99.90;;;;;;5074202;28;20450;-78
2021/07/12 09:26:46;;;;;;;13.70;12.60;;;23.90;99.90;;;;;;5074214;28;20471;-77
2021/07/12 09:29:22;;;;;;;18.30;16.67;;;24.00;99.90;;;;;;5074216;28;20549;-78
2021/07/12 09:31:49;;;;;;;14.70;13.30;;;24.10;99.90;;;;;;5074123;28;20472;-77
2021/07/12 09:34:16;;;;;;;13.50;12.40;;;24.20;99.90;;;;;;5074700;28;20519;-77
2021/07/12 09:36:43;;;;;;;13.50;12.50;;;24.00;99.90;;;;;;5074261;28;20525;-78
2021/07/12 09:39:29;;;;;;;14.00;12.83;;;24.30;99.90;;;;;;5074118;28;20501;-77
2021/07/12 09:41:57;;;;;;;13.80;12.70;;;24.10;99.90;;;;;;5074105;28;20463;-77
2021/07/12 09:44:26;;;;;;;14.90;13.60;;;23.90;99.90;;;;;;5074019;28;20455;-77
2021/07/12 09:46:54;;;;;;;14.63;13.37;;;23.80;99.90;;;;;;5075173;28;20475;-78
2021/07/12 09:49:23;;;;;;;15.60;14.30;;;23.80;99.90;;;;;;5073842;28;20898;-77
2021/07/12 09:51:54;;;;;;;13.70;12.60;;;23.80;99.90;;;;;;5074066;28;20509;-78
2021/07/12 09:54:25;;;;;;;12.53;11.47;;;23.80;99.90;;;;;;5073854;28;20442;-77
2021/07/12 09:56:54;;;;;;;13.83;12.77;;;23.80;99.90;;;;;;5073862;28;20426;-77
2021/07/12 09:59:21;;;;;;;14.30;13.20;;;23.70;99.90;;;;;;5073981;28;20470;-77
2021/07/12 10:01:50;;;;;;;13.87;12.67;;;23.70;99.90;;;;;;5083632;22;20917;-75
2021/07/12 10:04:17;;;;;;;15.70;14.20;;;23.70;99.90;;;;;;5056875;28;20451;-76
2021/07/12 10:06:45;;;;;;;15.33;13.93;;;23.70;99.90;;;;;;5055491;28;20478;-75
2021/07/12 10:09:13;;;;;;;15.33;14.20;;;23.80;99.90;;;;;;5054593;28;20459;-77
2021/07/12 10:11:42;;;;;;;14.23;13.13;;;23.90;99.90;;;;;;5054300;28;20496;-76
2021/07/12 10:14:10;;;;;;;14.77;13.57;;;24.10;99.90;;;;;;5054160;28;20450;-76
2021/07/12 10:16:36;;;;;;;13.57;12.53;;;24.10;99.90;;;;;;5054330;28;20485;-76
2021/07/12 10:19:04;;;;;;;14.60;13.43;;;24.10;99.90;;;;;;5053658;28;20479;-76
2021/07/12 10:21:40;;;;;;;15.47;14.07;;;24.30;99.90;;;;;;5053711;28;20492;-76
2021/07/12 10:24:07;;;;;;;20.53;18.60;;;24.40;99.90;;;;;;5053387;28;20459;-76
2021/07/12 10:26:50;;;;;;;17.97;16.47;;;24.50;99.90;;;;;;5053239;28;20503;-76
2021/07/12 10:29:21;;;;;;;16.80;15.30;;;24.50;99.90;;;;;;5053608;28;20516;-77
2021/07/12 10:32:08;;;;;;;12.37;11.40;;;24.50;99.90;;;;;;5054132;28;21003;-76
2021/07/12 10:34:37;;;;;;;12.00;11.10;;;24.30;99.90;;;;;;5054112;28;20446;-76
2021/07/12 10:37:07;;;;;;;13.93;12.73;;;24.40;99.90;;;;;;5053038;28;20480;-76
2021/07/12 10:40:24;;;;;;;12.40;11.50;;;24.40;99.90;;;;;;5056786;28;20424;-76
2021/07/12 10:42:53;;;;;;;12.40;11.50;;;24.60;99.90;;;;;;5055954;28;20503;-76
2021/07/12 10:45:37;;;;;;;12.57;11.67;;;24.70;99.90;;;;;;5058424;28;20897;-76
2021/07/12 10:48:10;;;;;;;11.20;10.40;;;24.90;99.90;;;;;;5058390;28;20458;-76
2021/07/12 10:50:55;;;;;;;12.00;11.00;;;25.00;99.90;;;;;;5058454;28;20847;-76
2021/07/12 10:54:02;;;;;;;11.30;10.53;;;25.60;99.90;;;;;;5058796;28;20490;-76
2021/07/12 10:56:45;;;;;;;12.40;11.33;;;25.20;99.90;;;;;;5058396;28;20445;-76
2021/07/12 10:59:26;;;;;;;11.63;10.73;;;25.30;99.90;;;;;;5055860;28;20457;-76
2021/07/12 11:01:53;;;;;;;13.07;11.87;;;25.30;99.90;;;;;;5056923;28;20489;-75
2021/07/12 11:04:38;;;;;;;12.50;11.30;;;25.30;99.90;;;;;;5057664;28;20826;-76
2021/07/12 11:07:07;;;;;;;15.90;14.50;;;25.30;99.90;;;;;;5056681;28;20459;-75
2021/07/12 11:09:45;;;;;;;16.10;13.70;;;25.30;99.90;;;;;;5056966;28;20444;-75
2021/07/12 11:12:32;;;;;;;13.97;12.97;;;25.30;99.90;;;;;;5057368;28;20493;-77
2021/07/12 11:15:18;;;;;;;12.00;11.00;;;25.10;99.90;;;;;;5057567;28;20506;-77
2021/07/12 11:17:53;;;;;;;11.60;10.77;;;25.00;99.90;;;;;;5057365;28;20525;-76
2021/07/12 11:20:53;;;;;;;12.23;11.33;;;24.90;99.90;;;;;;5057365;28;20487;-77
2021/07/12 11:23:55;;;;;;;11.30;10.50;;;24.80;99.90;;;;;;5056969;28;20938;-75
2021/07/12 11:26:38;;;;;;;11.90;10.57;;;25.10;99.90;;;;;;5056480;28;20938;-76
2021/07/12 11:29:36;;;;;;;11.90;10.70;;;25.10;99.90;;;;;;5056974;28;20507;-76
2021/07/12 11:32:13;;;;;;;11.73;10.93;;;25.10;99.90;;;;;;5056796;28;20468;-76
2021/07/12 11:34:51;;;;;;;11.57;10.70;;;25.00;99.90;;;;;;5057472;28;20790;-77
2021/07/12 11:37:20;;;;;;;11.60;10.73;;;24.80;99.90;;;;;;5057053;28;20467;-77
2021/07/12 11:39:50;;;;;;;11.80;10.90;;;24.70;99.90;;;;;;5056893;28;20972;-77
2021/07/12 11:42:25;;;;;;;11.70;10.80;;;24.60;99.90;;;;;;5056363;28;20778;-76
2021/07/12 11:44:55;;;;;;;13.73;12.53;;;24.70;99.90;;;;;;5056753;28;21025;-76
2021/07/12 11:47:26;;;;;;;13.47;12.30;;;24.70;99.90;;;;;;5056743;28;20435;-76
2021/07/12 11:49:56;;;;;;;15.20;14.00;;;24.10;99.90;;;;;;5056447;28;20437;-76
2021/07/12 11:52:27;;;;;;;13.93;12.83;;;24.70;99.90;;;;;;5056731;28;20494;-76
2021/07/12 11:55:01;;;;;;;13.30;12.20;;;24.80;99.90;;;;;;5056134;28;20409;-78
2021/07/12 11:57:29;;;;;;;13.03;12.07;;;24.60;99.90;;;;;;5057841;28;20433;-76
2021/07/12 11:59:55;;;;;;;13.27;12.27;;;25.00;99.90;;;;;;5057938;28;20502;-76
2021/07/12 12:02:23;;;;;;;14.90;13.40;;;25.20;99.90;;;;;;5056825;28;20572;-77
2021/07/12 12:04:57;;;;;;;14.10;12.60;;;25.30;99.90;;;;;;5058284;28;20453;-77
2021/07/12 12:07:35;;;;;;;12.63;11.70;;;25.40;99.90;;;;;;5058516;28;20452;-77
2021/07/12 12:10:16;;;;;;;13.20;12.20;;;25.50;99.90;;;;;;5056728;28;20430;-76
2021/07/12 12:12:47;;;;;;;16.40;15.07;;;25.50;99.90;;;;;;5057062;28;20475;-77
2021/07/12 12:15:16;;;;;;;15.67;14.37;;;25.60;99.90;;;;;;5056367;28;20469;-76
2021/07/12 12:17:47;;;;;;;15.97;14.57;;;25.60;99.90;;;;;;5056881;28;20492;-76
2021/07/12 12:20:31;;;;;;;14.40;13.30;;;25.60;99.90;;;;;;5056781;28;20778;-77
2021/07/12 12:23:05;;;;;;;13.97;12.80;;;25.70;99.90;;;;;;5056405;28;20525;-77
2021/07/12 12:25:34;;;;;;;17.37;15.87;;;25.80;99.90;;;;;;5056588;28;20432;-76
2021/07/12 12:28:01;;;;;;;12.70;11.80;;;25.80;99.90;;;;;;5057118;28;20498;-77
2021/07/12 12:30:28;;;;;;;13.60;12.30;;;25.90;99.90;;;;;;5056990;28;20473;-78
2021/07/12 12:32:59;;;;;;;11.23;10.33;;;25.90;99.90;;;;;;5056973;28;20842;-76
2021/07/12 12:35:33;;;;;;;15.20;11.20;;;25.90;99.90;;;;;;5055732;28;20472;-76
2021/07/12 12:38:14;;;;;;;13.90;12.67;;;25.80;99.90;;;;;;5055076;28;20583;-77
2021/07/12 12:40:42;;;;;;;12.57;11.60;;;25.50;99.90;;;;;;5056730;28;20494;-77
2021/07/12 12:43:12;;;;;;;13.07;12.17;;;25.30;99.90;;;;;;5056465;28;20481;-77
2021/07/12 12:45:45;;;;;;;11.77;10.87;;;25.20;99.90;;;;;;5055842;28;20430;-77
2021/07/12 12:48:29;;;;;;;12.90;11.80;;;25.10;99.90;;;;;;5056511;28;20458;-77